sensor_id;sensor_type;location;lat;lon;timestamp;pressure;altitude;pressure_sealevel;temperature;humidity
3206;BME280;1615;53.602;11.418;2023-06-22T00:00:50;101540.91;;;19.84;100.00
3206;BME280;1615;53.602;11.418;2023-06-22T00:03:16;101536.91;;;19.93;100.00
3206;BME280;1615;53.602;11.418;2023-06-22T00:05:42;101532.19;;;19.85;100.00
3206;BME280;1615;53.602;11.418;2023-06-22T00:08:07;101532.25;;;19.77;100.00
3206;BME280;1615;53.602;11.418;2023-06-22T00:10:33;101531.59;;;19.80;100.00
3206;BME280;1615;53.602;11.418;2023-06-22T00:12:58;101536.78;;;19.90;100.00
3206;BME280;1615;53.602;11.418;2023-06-22T00:15:23;101545.59;;;19.92;100.00
3206;BME280;1615;53.602;11.418;2023-06-22T00:17:49;101530.31;;;19.98;100.00
3206;BME280;1615;53.602;11.418;2023-06-22T00:20:15;101542.59;;;19.97;100.00
3206;BME280;1615;53.602;11.418;2023-06-22T00:22:42;101540.03;;;19.92;100.00
3206;BME280;1615;53.602;11.418;2023-06-22T00:25:08;101540.69;;;19.89;100.00
3206;BME280;1615;53.602;11.418;2023-06-22T00:27:34;101556.06;;;19.95;100.00
3206;BME280;1615;53.602;11.418;2023-06-22T00:29:59;101555.91;;;19.62;100.00
3206;BME280;1615;53.602;11.418;2023-06-22T00:32:24;101561.34;;;19.50;100.00
3206;BME280;1615;53.602;11.418;2023-06-22T00:34:50;101507.81;;;19.24;100.00
3206;BME280;1615;53.602;11.418;2023-06-22T00:37:15;101557.28;;;19.48;100.00
3206;BME280;1615;53.602;11.418;2023-06-22T00:39:42;101553.06;;;19.42;100.00
3206;BME280;1615;53.602;11.418;2023-06-22T00:42:08;101535.56;;;19.33;100.00
3206;BME280;1615;53.602;11.418;2023-06-22T00:44:33;101558.56;;;19.50;100.00
3206;BME280;1615;53.602;11.418;2023-06-22T00:46:58;101513.50;;;19.28;100.00
3206;BME280;1615;53.602;11.418;2023-06-22T00:49:25;101537.50;;;19.41;100.00
3206;BME280;1615;53.602;11.418;2023-06-22T00:51:53;101545.50;;;19.42;100.00
3206;BME280;1615;53.602;11.418;2023-06-22T00:54:19;101552.38;;;19.45;100.00
3206;BME280;1615;53.602;11.418;2023-06-22T00:56:53;101556.28;;;19.52;100.00
3206;BME280;1615;53.602;11.418;2023-06-22T00:59:20;101469.44;;;19.01;100.00
3206;BME280;1615;53.602;11.418;2023-06-22T01:01:46;101548.91;;;19.56;100.00
3206;BME280;1615;53.602;11.418;2023-06-22T01:04:11;101542.88;;;19.46;100.00
3206;BME280;1615;53.602;11.418;2023-06-22T01:06:42;101501.75;;;19.14;100.00
3206;BME280;1615;53.602;11.418;2023-06-22T01:09:15;101501.75;;;19.14;100.00
3206;BME280;1615;53.602;11.418;2023-06-22T01:11:46;101553.19;;;19.45;100.00
3206;BME280;1615;53.602;11.418;2023-06-22T01:14:30;101556.47;;;19.39;100.00
3206;BME280;1615;53.602;11.418;2023-06-22T01:17:00;101565.19;;;19.29;100.00
3206;BME280;1615;53.602;11.418;2023-06-22T01:19:36;101495.16;;;18.81;100.00
3206;BME280;1615;53.602;11.418;2023-06-22T01:22:03;101571.88;;;19.36;100.00
3206;BME280;1615;53.602;11.418;2023-06-22T01:24:33;101570.41;;;19.39;100.00
3206;BME280;1615;53.602;11.418;2023-06-22T01:29:56;101559.47;;;19.25;100.00
3206;BME280;1615;53.602;11.418;2023-06-22T01:32:34;101489.13;;;18.79;100.00
3206;BME280;1615;53.602;11.418;2023-06-22T01:35:01;101578.28;;;19.20;100.00
3206;BME280;1615;53.602;11.418;2023-06-22T01:37:29;101564.06;;;19.21;100.00
3206;BME280;1615;53.602;11.418;2023-06-22T01:39:57;101565.03;;;19.25;100.00
3206;BME280;1615;53.602;11.418;2023-06-22T01:42:24;101505.44;;;18.89;100.00
3206;BME280;1615;53.602;11.418;2023-06-22T01:44:52;101563.22;;;19.21;100.00
3206;BME280;1615;53.602;11.418;2023-06-22T01:47:18;101558.31;;;19.18;100.00
3206;BME280;1615;53.602;11.418;2023-06-22T01:49:44;101546.59;;;19.12;100.00
3206;BME280;1615;53.602;11.418;2023-06-22T01:52:11;101553.44;;;19.15;100.00
3206;BME280;1615;53.602;11.418;2023-06-22T01:54:37;101559.19;;;19.10;100.00
3206;BME280;1615;53.602;11.418;2023-06-22T01:57:03;101566.53;;;19.06;100.00
3206;BME280;1615;53.602;11.418;2023-06-22T01:59:32;101561.78;;;19.06;100.00
3206;BME280;1615;53.602;11.418;2023-06-22T02:02:08;101553.78;;;19.05;100.00
3206;BME280;1615;53.602;11.418;2023-06-22T02:04:52;101452.56;;;18.43;100.00
3206;BME280;1615;53.602;11.418;2023-06-22T02:07:25;101503.19;;;18.74;100.00
3206;BME280;1615;53.602;11.418;2023-06-22T02:09:54;101490.78;;;18.63;100.00
3206;BME280;1615;53.602;11.418;2023-06-22T02:12:23;101562.59;;;19.07;100.00
3206;BME280;1615;53.602;11.418;2023-06-22T02:14:50;101552.16;;;19.04;100.00
3206;BME280;1615;53.602;11.418;2023-06-22T02:17:17;101563.28;;;19.04;100.00
3206;BME280;1615;53.602;11.418;2023-06-22T02:19:43;101531.94;;;18.69;100.00
3206;BME280;1615;53.602;11.418;2023-06-22T02:22:08;101578.47;;;18.98;100.00
3206;BME280;1615;53.602;11.418;2023-06-22T02:24:34;101564.41;;;18.94;100.00
3206;BME280;1615;53.602;11.418;2023-06-22T02:27:00;101555.59;;;18.92;100.00
3206;BME280;1615;53.602;11.418;2023-06-22T02:29:25;101484.56;;;18.49;100.00
3206;BME280;1615;53.602;11.418;2023-06-22T02:31:52;101555.94;;;18.91;100.00
3206;BME280;1615;53.602;11.418;2023-06-22T02:34:17;101561.34;;;18.87;100.00
3206;BME280;1615;53.602;11.418;2023-06-22T02:36:47;101483.28;;;18.46;100.00
3206;BME280;1615;53.602;11.418;2023-06-22T02:39:23;101546.75;;;18.90;100.00
3206;BME280;1615;53.602;11.418;2023-06-22T02:41:50;101549.22;;;18.92;100.00
3206;BME280;1615;53.602;11.418;2023-06-22T02:44:15;101554.13;;;18.95;100.00
3206;BME280;1615;53.602;11.418;2023-06-22T02:46:41;101551.81;;;18.97;100.00
3206;BME280;1615;53.602;11.418;2023-06-22T02:49:06;101555.75;;;18.96;100.00
3206;BME280;1615;53.602;11.418;2023-06-22T02:51:33;101542.03;;;18.91;100.00
3206;BME280;1615;53.602;11.418;2023-06-22T02:53:59;101500.44;;;18.57;100.00
3206;BME280;1615;53.602;11.418;2023-06-22T02:56:25;101436.72;;;18.26;100.00
3206;BME280;1615;53.602;11.418;2023-06-22T02:58:51;101544.16;;;19.02;100.00
3206;BME280;1615;53.602;11.418;2023-06-22T03:01:16;101561.63;;;19.03;100.00
3206;BME280;1615;53.602;11.418;2023-06-22T03:03:41;101545.13;;;18.89;100.00
3206;BME280;1615;53.602;11.418;2023-06-22T03:06:07;101558.66;;;19.08;100.00
3206;BME280;1615;53.602;11.418;2023-06-22T03:08:32;101461.22;;;18.41;100.00
3206;BME280;1615;53.602;11.418;2023-06-22T03:10:57;101570.47;;;19.05;100.00
3206;BME280;1615;53.602;11.418;2023-06-22T03:13:23;101566.06;;;18.95;100.00
3206;BME280;1615;53.602;11.418;2023-06-22T03:15:49;101519.34;;;18.80;100.00
3206;BME280;1615;53.602;11.418;2023-06-22T03:18:14;101504.16;;;18.78;100.00
3206;BME280;1615;53.602;11.418;2023-06-22T03:20:40;101568.78;;;19.21;100.00
3206;BME280;1615;53.602;11.418;2023-06-22T03:23:06;101477.38;;;18.65;100.00
3206;BME280;1615;53.602;11.418;2023-06-22T03:25:31;101585.16;;;19.22;100.00
3206;BME280;1615;53.602;11.418;2023-06-22T03:27:56;101527.78;;;19.01;100.00
3206;BME280;1615;53.602;11.418;2023-06-22T03:30:21;101577.28;;;19.33;100.00
3206;BME280;1615;53.602;11.418;2023-06-22T03:32:47;101581.69;;;19.34;100.00
3206;BME280;1615;53.602;11.418;2023-06-22T03:35:12;101539.88;;;19.13;100.00
3206;BME280;1615;53.602;11.418;2023-06-22T03:37:39;101590.69;;;19.14;100.00
3206;BME280;1615;53.602;11.418;2023-06-22T03:40:05;101513.28;;;18.87;100.00
3206;BME280;1615;53.602;11.418;2023-06-22T03:42:30;101587.69;;;19.53;100.00
3206;BME280;1615;53.602;11.418;2023-06-22T03:44:56;101579.31;;;19.61;100.00
3206;BME280;1615;53.602;11.418;2023-06-22T03:47:22;101567.34;;;19.15;100.00
3206;BME280;1615;53.602;11.418;2023-06-22T03:49:47;101585.84;;;19.65;100.00
3206;BME280;1615;53.602;11.418;2023-06-22T03:52:13;101594.16;;;19.74;100.00
3206;BME280;1615;53.602;11.418;2023-06-22T03:54:38;101598.38;;;19.80;100.00
3206;BME280;1615;53.602;11.418;2023-06-22T03:57:04;101598.00;;;19.90;100.00
3206;BME280;1615;53.602;11.418;2023-06-22T03:59:29;101596.66;;;19.96;100.00
3206;BME280;1615;53.602;11.418;2023-06-22T04:01:54;101595.03;;;19.95;100.00
3206;BME280;1615;53.602;11.418;2023-06-22T04:04:20;101594.34;;;19.98;100.00
3206;BME280;1615;53.602;11.418;2023-06-22T04:06:45;101600.53;;;20.12;100.00
3206;BME280;1615;53.602;11.418;2023-06-22T04:09:10;101598.50;;;20.21;100.00
3206;BME280;1615;53.602;11.418;2023-06-22T04:11:36;101596.28;;;20.35;100.00
3206;BME280;1615;53.602;11.418;2023-06-22T04:14:01;101503.38;;;19.90;100.00
3206;BME280;1615;53.602;11.418;2023-06-22T04:16:27;101608.44;;;20.51;100.00
3206;BME280;1615;53.602;11.418;2023-06-22T04:18:52;101560.78;;;20.23;100.00
3206;BME280;1615;53.602;11.418;2023-06-22T04:21:17;101604.50;;;20.52;100.00
3206;BME280;1615;53.602;11.418;2023-06-22T04:23:45;101613.88;;;20.68;100.00
3206;BME280;1615;53.602;11.418;2023-06-22T04:26:11;101613.88;;;20.68;100.00
3206;BME280;1615;53.602;11.418;2023-06-22T04:28:36;101612.06;;;20.72;100.00
3206;BME280;1615;53.602;11.418;2023-06-22T04:31:02;101620.78;;;20.82;100.00
3206;BME280;1615;53.602;11.418;2023-06-22T04:33:28;101531.00;;;20.24;100.00
3206;BME280;1615;53.602;11.418;2023-06-22T04:35:54;101564.81;;;20.55;100.00
3206;BME280;1615;53.602;11.418;2023-06-22T04:38:22;101613.34;;;20.95;100.00
3206;BME280;1615;53.602;11.418;2023-06-22T04:40:47;101615.47;;;20.98;100.00
3206;BME280;1615;53.602;11.418;2023-06-22T04:43:13;101664.06;;;21.09;100.00
3206;BME280;1615;53.602;11.418;2023-06-22T04:45:38;101624.06;;;21.25;100.00
3206;BME280;1615;53.602;11.418;2023-06-22T04:48:04;101623.78;;;21.18;100.00
3206;BME280;1615;53.602;11.418;2023-06-22T04:50:30;101623.91;;;21.22;100.00
3206;BME280;1615;53.602;11.418;2023-06-22T04:52:55;101622.06;;;21.26;100.00
3206;BME280;1615;53.602;11.418;2023-06-22T04:55:20;101626.91;;;21.17;100.00
3206;BME280;1615;53.602;11.418;2023-06-22T04:57:46;101624.19;;;21.29;100.00
3206;BME280;1615;53.602;11.418;2023-06-22T05:00:23;101620.13;;;21.38;100.00
3206;BME280;1615;53.602;11.418;2023-06-22T05:02:48;101618.19;;;21.51;100.00
3206;BME280;1615;53.602;11.418;2023-06-22T05:05:14;101576.25;;;21.27;100.00
3206;BME280;1615;53.602;11.418;2023-06-22T05:07:42;101591.44;;;21.50;100.00
3206;BME280;1615;53.602;11.418;2023-06-22T05:10:11;101610.34;;;21.77;100.00
3206;BME280;1615;53.602;11.418;2023-06-22T05:12:37;101620.81;;;21.80;100.00
3206;BME280;1615;53.602;11.418;2023-06-22T05:15:03;101619.56;;;21.89;100.00
3206;BME280;1615;53.602;11.418;2023-06-22T05:17:30;101625.47;;;22.12;100.00
3206;BME280;1615;53.602;11.418;2023-06-22T05:19:55;101610.78;;;22.27;100.00
3206;BME280;1615;53.602;11.418;2023-06-22T05:22:20;101616.00;;;22.40;100.00
3206;BME280;1615;53.602;11.418;2023-06-22T05:24:46;101613.56;;;22.39;100.00
3206;BME280;1615;53.602;11.418;2023-06-22T05:27:12;101616.38;;;22.27;100.00
3206;BME280;1615;53.602;11.418;2023-06-22T05:29:37;101619.78;;;22.44;100.00
3206;BME280;1615;53.602;11.418;2023-06-22T05:32:03;101630.22;;;22.59;100.00
3206;BME280;1615;53.602;11.418;2023-06-22T05:34:28;101626.06;;;22.81;100.00
3206;BME280;1615;53.602;11.418;2023-06-22T05:36:54;101606.09;;;22.67;100.00
3206;BME280;1615;53.602;11.418;2023-06-22T05:39:19;101622.72;;;22.75;100.00
3206;BME280;1615;53.602;11.418;2023-06-22T05:41:45;101612.97;;;22.97;100.00
3206;BME280;1615;53.602;11.418;2023-06-22T05:44:11;101617.22;;;23.18;100.00
3206;BME280;1615;53.602;11.418;2023-06-22T05:46:36;101568.53;;;23.07;100.00
3206;BME280;1615;53.602;11.418;2023-06-22T05:49:02;101615.94;;;23.59;100.00
3206;BME280;1615;53.602;11.418;2023-06-22T05:51:27;101607.34;;;23.83;100.00
3206;BME280;1615;53.602;11.418;2023-06-22T05:53:53;101595.97;;;24.07;100.00
3206;BME280;1615;53.602;11.418;2023-06-22T05:56:18;101603.06;;;24.35;100.00
3206;BME280;1615;53.602;11.418;2023-06-22T05:58:43;101564.53;;;24.32;100.00
3206;BME280;1615;53.602;11.418;2023-06-22T06:01:09;101610.75;;;24.73;100.00
3206;BME280;1615;53.602;11.418;2023-06-22T06:03:34;101626.63;;;24.84;100.00
3206;BME280;1615;53.602;11.418;2023-06-22T06:06:06;101614.59;;;24.84;99.33
3206;BME280;1615;53.602;11.418;2023-06-22T06:08:31;101618.72;;;24.90;97.38
3206;BME280;1615;53.602;11.418;2023-06-22T06:10:56;101616.63;;;25.06;94.81
3206;BME280;1615;53.602;11.418;2023-06-22T06:13:22;101611.03;;;25.06;94.18
3206;BME280;1615;53.602;11.418;2023-06-22T06:15:48;101607.66;;;25.35;92.40
3206;BME280;1615;53.602;11.418;2023-06-22T06:18:13;101617.38;;;25.41;89.52
3206;BME280;1615;53.602;11.418;2023-06-22T06:20:38;101591.41;;;25.25;86.02
3206;BME280;1615;53.602;11.418;2023-06-22T06:23:03;101610.75;;;25.30;79.49
3206;BME280;1615;53.602;11.418;2023-06-22T06:25:29;101590.13;;;25.03;83.22
3206;BME280;1615;53.602;11.418;2023-06-22T06:27:54;101611.34;;;25.39;85.79
3206;BME280;1615;53.602;11.418;2023-06-22T06:30:20;101607.34;;;25.40;86.49
3206;BME280;1615;53.602;11.418;2023-06-22T06:32:47;101601.25;;;25.38;85.01
3206;BME280;1615;53.602;11.418;2023-06-22T06:35:13;101619.28;;;25.56;83.01
3206;BME280;1615;53.602;11.418;2023-06-22T06:37:47;101617.16;;;25.72;81.05
3206;BME280;1615;53.602;11.418;2023-06-22T06:40:14;101546.34;;;25.63;77.65
3206;BME280;1615;53.602;11.418;2023-06-22T06:42:42;101609.66;;;26.02;80.31
3206;BME280;1615;53.602;11.418;2023-06-22T06:45:10;101613.09;;;25.69;84.39
3206;BME280;1615;53.602;11.418;2023-06-22T06:47:36;101612.66;;;25.45;89.84
3206;BME280;1615;53.602;11.418;2023-06-22T06:50:03;101608.66;;;25.46;88.40
3206;BME280;1615;53.602;11.418;2023-06-22T06:52:29;101550.03;;;25.03;84.32
3206;BME280;1615;53.602;11.418;2023-06-22T06:54:54;101608.16;;;25.63;83.75
3206;BME280;1615;53.602;11.418;2023-06-22T06:57:19;101608.00;;;25.78;88.67
3206;BME280;1615;53.602;11.418;2023-06-22T06:59:45;101602.53;;;25.63;87.65
3206;BME280;1615;53.602;11.418;2023-06-22T07:02:11;101617.78;;;25.62;87.17
3206;BME280;1615;53.602;11.418;2023-06-22T07:04:36;101614.16;;;25.39;86.85
3206;BME280;1615;53.602;11.418;2023-06-22T07:07:02;101604.31;;;25.10;89.74
3206;BME280;1615;53.602;11.418;2023-06-22T07:09:28;101598.53;;;25.22;94.42
3206;BME280;1615;53.602;11.418;2023-06-22T07:11:53;101535.88;;;24.96;95.77
3206;BME280;1615;53.602;11.418;2023-06-22T07:14:18;101601.59;;;25.55;89.93
3206;BME280;1615;53.602;11.418;2023-06-22T07:16:44;101601.81;;;25.66;86.98
3206;BME280;1615;53.602;11.418;2023-06-22T07:19:11;101578.44;;;25.62;86.18
3206;BME280;1615;53.602;11.418;2023-06-22T07:21:36;101599.69;;;25.82;84.81
3206;BME280;1615;53.602;11.418;2023-06-22T07:24:02;101557.84;;;25.77;86.51
3206;BME280;1615;53.602;11.418;2023-06-22T07:26:27;101596.69;;;26.20;81.26
3206;BME280;1615;53.602;11.418;2023-06-22T07:28:52;101588.91;;;26.10;77.75
3206;BME280;1615;53.602;11.418;2023-06-22T07:31:18;101589.66;;;26.07;79.20
3206;BME280;1615;53.602;11.418;2023-06-22T07:33:43;101595.88;;;26.19;78.48
3206;BME280;1615;53.602;11.418;2023-06-22T07:36:08;101593.03;;;26.16;80.78
3206;BME280;1615;53.602;11.418;2023-06-22T07:38:34;101588.47;;;26.34;81.86
3206;BME280;1615;53.602;11.418;2023-06-22T07:41:00;101551.94;;;26.08;81.22
3206;BME280;1615;53.602;11.418;2023-06-22T07:43:25;101591.50;;;26.22;80.72
3206;BME280;1615;53.602;11.418;2023-06-22T07:45:51;101597.06;;;26.18;81.85
3206;BME280;1615;53.602;11.418;2023-06-22T07:48:22;101593.03;;;26.16;78.93
3206;BME280;1615;53.602;11.418;2023-06-22T07:50:48;101575.06;;;25.98;80.34
3206;BME280;1615;53.602;11.418;2023-06-22T07:53:18;101579.22;;;26.07;82.26
3206;BME280;1615;53.602;11.418;2023-06-22T07:55:43;101583.06;;;26.22;80.43
3206;BME280;1615;53.602;11.418;2023-06-22T07:58:08;101588.38;;;26.27;80.73
3206;BME280;1615;53.602;11.418;2023-06-22T08:00:34;101556.16;;;26.21;81.19
3206;BME280;1615;53.602;11.418;2023-06-22T08:02:59;101579.59;;;26.32;81.98
3206;BME280;1615;53.602;11.418;2023-06-22T08:05:24;101589.56;;;26.26;81.10
3206;BME280;1615;53.602;11.418;2023-06-22T08:07:50;101586.09;;;26.36;79.95
3206;BME280;1615;53.602;11.418;2023-06-22T08:10:15;101578.59;;;26.17;80.38
3206;BME280;1615;53.602;11.418;2023-06-22T08:12:41;101596.06;;;26.56;80.00
3206;BME280;1615;53.602;11.418;2023-06-22T08:15:07;101559.78;;;26.21;80.66
3206;BME280;1615;53.602;11.418;2023-06-22T08:17:33;101543.56;;;26.41;77.47
3206;BME280;1615;53.602;11.418;2023-06-22T08:19:58;101589.75;;;26.66;76.77
3206;BME280;1615;53.602;11.418;2023-06-22T08:22:24;101584.91;;;26.63;78.54
3206;BME280;1615;53.602;11.418;2023-06-22T08:24:49;101585.44;;;26.72;77.51
3206;BME280;1615;53.602;11.418;2023-06-22T08:27:14;101568.00;;;26.63;74.67
3206;BME280;1615;53.602;11.418;2023-06-22T08:29:42;101594.66;;;26.72;74.07
3206;BME280;1615;53.602;11.418;2023-06-22T08:32:11;101530.78;;;26.47;76.03
3206;BME280;1615;53.602;11.418;2023-06-22T08:34:37;101549.56;;;26.65;75.66
3206;BME280;1615;53.602;11.418;2023-06-22T08:37:02;101543.22;;;26.72;74.40
3206;BME280;1615;53.602;11.418;2023-06-22T08:39:31;101599.34;;;27.24;72.96
3206;BME280;1615;53.602;11.418;2023-06-22T08:41:56;101592.88;;;27.60;70.32
3206;BME280;1615;53.602;11.418;2023-06-22T08:44:22;101218.63;;;25.41;69.71
3206;BME280;1615;53.602;11.418;2023-06-22T08:46:47;101597.50;;;27.78;67.96
3206;BME280;1615;53.602;11.418;2023-06-22T08:49:12;101600.78;;;27.84;66.33
3206;BME280;1615;53.602;11.418;2023-06-22T08:51:38;101605.75;;;27.61;65.30
3206;BME280;1615;53.602;11.418;2023-06-22T08:54:03;101599.72;;;27.59;66.68
3206;BME280;1615;53.602;11.418;2023-06-22T08:56:28;101591.63;;;27.54;68.94
3206;BME280;1615;53.602;11.418;2023-06-22T08:58:54;101585.97;;;27.54;67.70
3206;BME280;1615;53.602;11.418;2023-06-22T09:01:19;101586.69;;;27.44;70.89
3206;BME280;1615;53.602;11.418;2023-06-22T09:03:44;101588.41;;;27.55;69.90
3206;BME280;1615;53.602;11.418;2023-06-22T09:06:13;101586.13;;;27.68;67.67
3206;BME280;1615;53.602;11.418;2023-06-22T09:08:39;101564.13;;;27.44;66.50
3206;BME280;1615;53.602;11.418;2023-06-22T09:11:04;101588.78;;;27.54;65.05
3206;BME280;1615;53.602;11.418;2023-06-22T09:13:31;101588.41;;;27.55;64.87
3206;BME280;1615;53.602;11.418;2023-06-22T09:15:57;101574.16;;;27.38;61.83
3206;BME280;1615;53.602;11.418;2023-06-22T09:18:22;101574.19;;;27.41;61.07
3206;BME280;1615;53.602;11.418;2023-06-22T09:20:47;101565.44;;;27.53;60.16
3206;BME280;1615;53.602;11.418;2023-06-22T09:23:13;101573.91;;;27.57;55.49
3206;BME280;1615;53.602;11.418;2023-06-22T09:25:39;101570.81;;;27.69;56.93
3206;BME280;1615;53.602;11.418;2023-06-22T09:28:05;101576.31;;;27.55;54.70
3206;BME280;1615;53.602;11.418;2023-06-22T09:30:31;101503.06;;;27.15;52.67
3206;BME280;1615;53.602;11.418;2023-06-22T09:32:56;101575.75;;;27.39;49.67
3206;BME280;1615;53.602;11.418;2023-06-22T09:35:21;101573.91;;;27.57;47.09
3206;BME280;1615;53.602;11.418;2023-06-22T09:37:46;101527.03;;;27.35;45.71
3206;BME280;1615;53.602;11.418;2023-06-22T09:40:14;101520.56;;;27.31;45.47
3206;BME280;1615;53.602;11.418;2023-06-22T09:42:42;101561.88;;;27.60;45.03
3206;BME280;1615;53.602;11.418;2023-06-22T09:45:07;101550.97;;;27.55;44.09
3206;BME280;1615;53.602;11.418;2023-06-22T09:47:33;101562.56;;;27.46;46.14
3206;BME280;1615;53.602;11.418;2023-06-22T09:49:58;101555.63;;;27.37;46.97
3206;BME280;1615;53.602;11.418;2023-06-22T09:52:25;101550.03;;;27.40;48.57
3206;BME280;1615;53.602;11.418;2023-06-22T09:54:50;101551.09;;;27.29;52.00
3206;BME280;1615;53.602;11.418;2023-06-22T09:57:15;101555.66;;;27.04;55.01
3206;BME280;1615;53.602;11.418;2023-06-22T09:59:41;101554.56;;;27.15;54.34
3206;BME280;1615;53.602;11.418;2023-06-22T10:02:07;101551.13;;;27.32;55.17
3206;BME280;1615;53.602;11.418;2023-06-22T10:04:34;101555.13;;;27.28;55.90
3206;BME280;1615;53.602;11.418;2023-06-22T10:06:59;101550.94;;;27.15;57.18
3206;BME280;1615;53.602;11.418;2023-06-22T10:09:25;101546.47;;;26.77;60.92
3206;BME280;1615;53.602;11.418;2023-06-22T10:11:50;101489.00;;;26.16;66.12
3206;BME280;1615;53.602;11.418;2023-06-22T10:14:15;101544.38;;;26.41;68.85
3206;BME280;1615;53.602;11.418;2023-06-22T10:16:41;101543.03;;;26.58;70.55
3206;BME280;1615;53.602;11.418;2023-06-22T10:19:07;101540.84;;;26.77;71.72
3206;BME280;1615;53.602;11.418;2023-06-22T10:21:32;101527.03;;;26.98;67.05
3206;BME280;1615;53.602;11.418;2023-06-22T10:23:58;101523.66;;;27.19;65.90
3206;BME280;1615;53.602;11.418;2023-06-22T10:26:24;101527.66;;;27.18;64.67
3206;BME280;1615;53.602;11.418;2023-06-22T10:28:50;101518.53;;;26.95;66.42
3206;BME280;1615;53.602;11.418;2023-06-22T10:31:15;101523.56;;;27.12;66.56
3206;BME280;1615;53.602;11.418;2023-06-22T10:33:42;101518.09;;;27.26;64.89
3206;BME280;1615;53.602;11.418;2023-06-22T10:36:09;101463.09;;;26.99;59.73
3206;BME280;1615;53.602;11.418;2023-06-22T10:38:34;101511.72;;;27.32;59.45
3206;BME280;1615;53.602;11.418;2023-06-22T10:40:59;101492.94;;;27.07;60.40
3206;BME280;1615;53.602;11.418;2023-06-22T10:43:25;101460.00;;;27.11;60.17
3206;BME280;1615;53.602;11.418;2023-06-22T10:45:50;101500.84;;;27.31;58.70
3206;BME280;1615;53.602;11.418;2023-06-22T10:48:15;101499.56;;;27.25;55.97
3206;BME280;1615;53.602;11.418;2023-06-22T10:50:41;101515.47;;;27.47;55.08
3206;BME280;1615;53.602;11.418;2023-06-22T10:53:06;101506.22;;;27.50;56.68
3206;BME280;1615;53.602;11.418;2023-06-22T10:55:31;101514.69;;;27.50;56.21
3206;BME280;1615;53.602;11.418;2023-06-22T10:57:56;101507.38;;;27.42;57.94
3206;BME280;1615;53.602;11.418;2023-06-22T11:00:22;101517.09;;;27.48;58.53
3206;BME280;1615;53.602;11.418;2023-06-22T11:02:47;101484.88;;;27.45;56.82
3206;BME280;1615;53.602;11.418;2023-06-22T11:05:12;101504.34;;;27.64;56.50
3206;BME280;1615;53.602;11.418;2023-06-22T11:07:41;101504.66;;;27.52;57.19
3206;BME280;1615;53.602;11.418;2023-06-22T11:10:07;101468.09;;;27.16;59.22
3206;BME280;1615;53.602;11.418;2023-06-22T11:12:32;101501.81;;;27.49;58.80
3206;BME280;1615;53.602;11.418;2023-06-22T11:14:58;101499.34;;;27.44;60.29
3206;BME280;1615;53.602;11.418;2023-06-22T11:17:23;101410.06;;;27.08;60.49
3206;BME280;1615;53.602;11.418;2023-06-22T11:19:49;101486.28;;;27.69;60.90
3206;BME280;1615;53.602;11.418;2023-06-22T11:22:14;101480.28;;;27.74;59.95
3206;BME280;1615;53.602;11.418;2023-06-22T11:24:39;101479.94;;;27.79;58.95
3206;BME280;1615;53.602;11.418;2023-06-22T11:27:05;101473.09;;;27.80;58.92
3206;BME280;1615;53.602;11.418;2023-06-22T11:29:30;101449.16;;;27.60;59.69
3206;BME280;1615;53.602;11.418;2023-06-22T11:31:56;101470.97;;;27.70;61.08
3206;BME280;1615;53.602;11.418;2023-06-22T11:34:21;101476.66;;;27.77;60.23
3206;BME280;1615;53.602;11.418;2023-06-22T11:36:46;101437.88;;;27.60;60.28
3206;BME280;1615;53.602;11.418;2023-06-22T11:39:13;101471.13;;;27.84;61.42
3206;BME280;1615;53.602;11.418;2023-06-22T11:41:40;101435.47;;;27.62;61.80
3206;BME280;1615;53.602;11.418;2023-06-22T11:44:05;101473.59;;;27.96;61.35
3206;BME280;1615;53.602;11.418;2023-06-22T11:46:30;101461.47;;;27.92;61.08
3206;BME280;1615;53.602;11.418;2023-06-22T11:48:57;101459.16;;;28.08;62.35
3206;BME280;1615;53.602;11.418;2023-06-22T11:51:22;101442.69;;;28.13;60.97
3206;BME280;1615;53.602;11.418;2023-06-22T11:53:47;101449.56;;;28.23;59.35
3206;BME280;1615;53.602;11.418;2023-06-22T11:56:12;101448.66;;;28.05;60.29
3206;BME280;1615;53.602;11.418;2023-06-22T11:58:38;101439.00;;;28.06;62.09
3206;BME280;1615;53.602;11.418;2023-06-22T12:01:03;101447.13;;;28.18;60.80
3206;BME280;1615;53.602;11.418;2023-06-22T12:03:28;101437.47;;;28.26;60.72
3206;BME280;1615;53.602;11.418;2023-06-22T12:05:55;101439.13;;;28.30;60.18
3206;BME280;1615;53.602;11.418;2023-06-22T12:08:21;101435.19;;;28.45;59.44
3206;BME280;1615;53.602;11.418;2023-06-22T12:10:46;101438.38;;;28.40;59.63
3206;BME280;1615;53.602;11.418;2023-06-22T12:13:11;101425.81;;;28.34;59.92
3206;BME280;1615;53.602;11.418;2023-06-22T12:15:36;101435.19;;;28.56;61.62
3206;BME280;1615;53.602;11.418;2023-06-22T12:18:02;101418.69;;;28.65;58.43
3206;BME280;1615;53.602;11.418;2023-06-22T12:20:27;101368.25;;;28.46;60.17
3206;BME280;1615;53.602;11.418;2023-06-22T12:22:53;101377.13;;;28.48;58.18
3206;BME280;1615;53.602;11.418;2023-06-22T12:25:20;101392.09;;;28.59;59.95
3206;BME280;1615;53.602;11.418;2023-06-22T12:27:45;101385.63;;;28.62;57.81
3206;BME280;1615;53.602;11.418;2023-06-22T12:30:11;101429.69;;;29.05;56.31
3206;BME280;1615;53.602;11.418;2023-06-22T12:32:36;101422.81;;;28.99;57.23
3206;BME280;1615;53.602;11.418;2023-06-22T12:35:02;101365.84;;;28.62;56.44
3206;BME280;1615;53.602;11.418;2023-06-22T12:37:27;101409.44;;;28.82;56.97
3206;BME280;1615;53.602;11.418;2023-06-22T12:39:54;101383.63;;;28.73;58.22
3206;BME280;1615;53.602;11.418;2023-06-22T12:42:22;101405.06;;;29.05;57.66
3206;BME280;1615;53.602;11.418;2023-06-22T12:44:47;101397.38;;;29.30;56.98
3206;BME280;1615;53.602;11.418;2023-06-22T12:47:12;101391.75;;;29.34;55.49
3206;BME280;1615;53.602;11.418;2023-06-22T12:49:38;101395.00;;;29.04;55.12
3206;BME280;1615;53.602;11.418;2023-06-22T12:52:08;101392.50;;;28.82;56.26